sensor_id;sensor_type;location;lat;lon;timestamp;temperature;humidity
74923;HTU21D;64715;44.760;37.678;2023-09-30T00:00:54;19.98;43.57
74923;HTU21D;64715;44.760;37.678;2023-09-30T00:01:55;19.96;43.57
74923;HTU21D;64715;44.760;37.678;2023-09-30T00:02:56;19.97;43.55
74923;HTU21D;64715;44.760;37.678;2023-09-30T00:03:57;20.00;43.69
74923;HTU21D;64715;44.760;37.678;2023-09-30T00:04:58;20.01;43.68
74923;HTU21D;64715;44.760;37.678;2023-09-30T00:05:59;20.03;43.51
74923;HTU21D;64715;44.760;37.678;2023-09-30T00:07:00;20.04;43.64
74923;HTU21D;64715;44.760;37.678;2023-09-30T00:08:01;20.01;43.59
74923;HTU21D;64715;44.760;37.678;2023-09-30T00:09:02;20.02;43.55
74923;HTU21D;64715;44.760;37.678;2023-09-30T00:10:04;20.00;43.60
74923;HTU21D;64715;44.760;37.678;2023-09-30T00:11:05;19.99;43.67
74923;HTU21D;64715;44.760;37.678;2023-09-30T00:12:08;19.98;43.54
74923;HTU21D;64715;44.760;37.678;2023-09-30T00:13:09;19.95;43.51
74923;HTU21D;64715;44.760;37.678;2023-09-30T00:14:10;19.94;43.63
74923;HTU21D;64715;44.760;37.678;2023-09-30T00:15:11;19.90;43.65
74923;HTU21D;64715;44.760;37.678;2023-09-30T00:16:12;19.88;43.63
74923;HTU21D;64715;44.760;37.678;2023-09-30T00:17:13;19.88;43.67
74923;HTU21D;64715;44.760;37.678;2023-09-30T00:18:14;19.85;43.65
74923;HTU21D;64715;44.760;37.678;2023-09-30T00:19:15;19.85;43.55
74923;HTU21D;64715;44.760;37.678;2023-09-30T00:20:16;19.81;43.60
74923;HTU21D;64715;44.760;37.678;2023-09-30T00:21:18;19.80;43.74
74923;HTU21D;64715;44.760;37.678;2023-09-30T00:22:19;19.79;43.74
74923;HTU21D;64715;44.760;37.678;2023-09-30T00:23:20;19.79;43.80
74923;HTU21D;64715;44.760;37.678;2023-09-30T00:24:22;19.76;43.64
74923;HTU21D;64715;44.760;37.678;2023-09-30T00:25:23;19.76;43.70
74923;HTU21D;64715;44.760;37.678;2023-09-30T00:26:24;19.76;43.70
74923;HTU21D;64715;44.760;37.678;2023-09-30T00:27:25;19.74;43.71
74923;HTU21D;64715;44.760;37.678;2023-09-30T00:28:26;19.73;43.66
74923;HTU21D;64715;44.760;37.678;2023-09-30T00:29:27;19.70;43.67
74923;HTU21D;64715;44.760;37.678;2023-09-30T00:30:28;19.67;43.67
74923;HTU21D;64715;44.760;37.678;2023-09-30T00:31:29;19.65;43.66
74923;HTU21D;64715;44.760;37.678;2023-09-30T00:32:30;19.62;43.68
74923;HTU21D;64715;44.760;37.678;2023-09-30T00:33:31;19.58;43.70
74923;HTU21D;64715;44.760;37.678;2023-09-30T00:34:34;19.56;43.71
74923;HTU21D;64715;44.760;37.678;2023-09-30T00:35:35;19.53;43.63
74923;HTU21D;64715;44.760;37.678;2023-09-30T00:36:37;19.50;43.61
74923;HTU21D;64715;44.760;37.678;2023-09-30T00:37:38;19.47;43.69
74923;HTU21D;64715;44.760;37.678;2023-09-30T00:38:40;19.44;43.77
74923;HTU21D;64715;44.760;37.678;2023-09-30T00:39:41;19.40;43.79
74923;HTU21D;64715;44.760;37.678;2023-09-30T00:40:48;19.39;43.89
74923;HTU21D;64715;44.760;37.678;2023-09-30T00:41:49;19.38;43.93
74923;HTU21D;64715;44.760;37.678;2023-09-30T00:42:50;19.37;44.00
74923;HTU21D;64715;44.760;37.678;2023-09-30T00:43:52;19.38;44.06
74923;HTU21D;64715;44.760;37.678;2023-09-30T00:44:52;19.38;43.96
74923;HTU21D;64715;44.760;37.678;2023-09-30T00:46:06;19.39;43.93
74923;HTU21D;64715;44.760;37.678;2023-09-30T00:47:10;19.39;43.89
74923;HTU21D;64715;44.760;37.678;2023-09-30T00:48:11;19.37;43.94
74923;HTU21D;64715;44.760;37.678;2023-09-30T00:49:13;19.36;43.95
74923;HTU21D;64715;44.760;37.678;2023-09-30T00:50:15;19.35;43.88
74923;HTU21D;64715;44.760;37.678;2023-09-30T00:51:16;19.30;43.87
74923;HTU21D;64715;44.760;37.678;2023-09-30T00:52:17;19.30;43.96
74923;HTU21D;64715;44.760;37.678;2023-09-30T00:53:19;19.29;44.00
74923;HTU21D;64715;44.760;37.678;2023-09-30T00:54:21;19.29;44.09
74923;HTU21D;64715;44.760;37.678;2023-09-30T00:55:22;19.30;44.08
74923;HTU21D;64715;44.760;37.678;2023-09-30T00:56:26;19.30;43.93
74923;HTU21D;64715;44.760;37.678;2023-09-30T00:57:27;19.31;44.00
74923;HTU21D;64715;44.760;37.678;2023-09-30T00:58:28;19.33;44.11
74923;HTU21D;64715;44.760;37.678;2023-09-30T00:59:31;19.32;43.93
74923;HTU21D;64715;44.760;37.678;2023-09-30T01:00:33;19.35;44.08
74923;HTU21D;64715;44.760;37.678;2023-09-30T01:01:34;19.36;44.09
74923;HTU21D;64715;44.760;37.678;2023-09-30T01:02:36;19.37;43.93
74923;HTU21D;64715;44.760;37.678;2023-09-30T01:03:40;19.35;43.97
74923;HTU21D;64715;44.760;37.678;2023-09-30T01:04:41;19.35;43.97
74923;HTU21D;64715;44.760;37.678;2023-09-30T01:05:43;19.39;44.04
74923;HTU21D;64715;44.760;37.678;2023-09-30T01:06:44;19.37;44.03
74923;HTU21D;64715;44.760;37.678;2023-09-30T01:07:45;19.38;43.86
74923;HTU21D;64715;44.760;37.678;2023-09-30T01:08:46;19.37;43.94
74923;HTU21D;64715;44.760;37.678;2023-09-30T01:09:48;19.39;43.85
74923;HTU21D;64715;44.760;37.678;2023-09-30T01:10:49;19.40;44.07
74923;HTU21D;64715;44.760;37.678;2023-09-30T01:11:50;19.41;44.02
74923;HTU21D;64715;44.760;37.678;2023-09-30T01:12:51;19.43;43.90
74923;HTU21D;64715;44.760;37.678;2023-09-30T01:13:52;19.44;43.93
74923;HTU21D;64715;44.760;37.678;2023-09-30T01:14:58;19.47;43.98
74923;HTU21D;64715;44.760;37.678;2023-09-30T01:16:08;19.50;43.93
74923;HTU21D;64715;44.760;37.678;2023-09-30T01:17:12;19.48;43.88
74923;HTU21D;64715;44.760;37.678;2023-09-30T01:18:14;19.48;43.93
74923;HTU21D;64715;44.760;37.678;2023-09-30T01:19:15;19.48;43.77
74923;HTU21D;64715;44.760;37.678;2023-09-30T01:20:16;19.47;43.82
74923;HTU21D;64715;44.760;37.678;2023-09-30T01:21:22;19.46;43.80
74923;HTU21D;64715;44.760;37.678;2023-09-30T01:22:24;19.45;43.86
74923;HTU21D;64715;44.760;37.678;2023-09-30T01:23:25;19.44;43.94
74923;HTU21D;64715;44.760;37.678;2023-09-30T01:24:26;19.44;43.89
74923;HTU21D;64715;44.760;37.678;2023-09-30T01:25:27;19.43;43.80
74923;HTU21D;64715;44.760;37.678;2023-09-30T01:26:28;19.40;43.87
74923;HTU21D;64715;44.760;37.678;2023-09-30T01:27:29;19.41;43.90
74923;HTU21D;64715;44.760;37.678;2023-09-30T01:28:31;19.40;43.93
74923;HTU21D;64715;44.760;37.678;2023-09-30T01:29:32;19.40;43.80
74923;HTU21D;64715;44.760;37.678;2023-09-30T01:30:33;19.39;43.90
74923;HTU21D;64715;44.760;37.678;2023-09-30T01:31:34;19.39;43.86
74923;HTU21D;64715;44.760;37.678;2023-09-30T01:32:37;19.37;43.84
74923;HTU21D;64715;44.760;37.678;2023-09-30T01:33:38;19.36;43.90
74923;HTU21D;64715;44.760;37.678;2023-09-30T01:34:39;19.37;43.95
74923;HTU21D;64715;44.760;37.678;2023-09-30T01:35:40;19.38;43.88
74923;HTU21D;64715;44.760;37.678;2023-09-30T01:36:44;19.38;43.90
74923;HTU21D;64715;44.760;37.678;2023-09-30T01:37:45;19.37;43.90
74923;HTU21D;64715;44.760;37.678;2023-09-30T01:38:46;19.37;43.87
74923;HTU21D;64715;44.760;37.678;2023-09-30T01:39:47;19.38;43.88
74923;HTU21D;64715;44.760;37.678;2023-09-30T01:40:51;19.36;43.89
74923;HTU21D;64715;44.760;37.678;2023-09-30T01:41:52;19.35;43.90
74923;HTU21D;64715;44.760;37.678;2023-09-30T01:42:53;19.35;43.78
74923;HTU21D;64715;44.760;37.678;2023-09-30T01:43:54;19.36;43.84
74923;HTU21D;64715;44.760;37.678;2023-09-30T01:44:54;19.36;43.83
74923;HTU21D;64715;44.760;37.678;2023-09-30T01:45:57;19.32;43.91
74923;HTU21D;64715;44.760;37.678;2023-09-30T01:46:58;19.32;43.95
74923;HTU21D;64715;44.760;37.678;2023-09-30T01:47:59;19.33;43.95
74923;HTU21D;64715;44.760;37.678;2023-09-30T01:49:02;19.32;43.94
74923;HTU21D;64715;44.760;37.678;2023-09-30T01:50:07;19.29;43.90
74923;HTU21D;64715;44.760;37.678;2023-09-30T01:51:08;19.28;43.77
74923;HTU21D;64715;44.760;37.678;2023-09-30T01:52:10;19.25;43.87
74923;HTU21D;64715;44.760;37.678;2023-09-30T01:53:11;19.24;43.91
74923;HTU21D;64715;44.760;37.678;2023-09-30T01:54:11;19.22;43.97
74923;HTU21D;64715;44.760;37.678;2023-09-30T01:55:14;19.21;43.81
74923;HTU21D;64715;44.760;37.678;2023-09-30T01:56:15;19.18;43.85
74923;HTU21D;64715;44.760;37.678;2023-09-30T01:57:16;19.17;43.90
74923;HTU21D;64715;44.760;37.678;2023-09-30T01:58:17;19.17;43.97
74923;HTU21D;64715;44.760;37.678;2023-09-30T01:59:18;19.16;44.03
74923;HTU21D;64715;44.760;37.678;2023-09-30T02:00:20;19.15;44.09
74923;HTU21D;64715;44.760;37.678;2023-09-30T02:01:21;19.14;43.93
74923;HTU21D;64715;44.760;37.678;2023-09-30T02:02:21;19.11;44.03
74923;HTU21D;64715;44.760;37.678;2023-09-30T02:03:22;19.12;44.00
74923;HTU21D;64715;44.760;37.678;2023-09-30T02:04:24;19.08;44.18
74923;HTU21D;64715;44.760;37.678;2023-09-30T02:05:26;19.08;44.12
74923;HTU21D;64715;44.760;37.678;2023-09-30T02:06:27;19.08;44.11
74923;HTU21D;64715;44.760;37.678;2023-09-30T02:07:28;19.06;44.16
74923;HTU21D;64715;44.760;37.678;2023-09-30T02:08:30;19.05;44.00
74923;HTU21D;64715;44.760;37.678;2023-09-30T02:09:31;19.03;44.05
74923;HTU21D;64715;44.760;37.678;2023-09-30T02:10:34;19.02;44.08
74923;HTU21D;64715;44.760;37.678;2023-09-30T02:11:35;19.00;43.98
74923;HTU21D;64715;44.760;37.678;2023-09-30T02:12:38;18.98;44.12
74923;HTU21D;64715;44.760;37.678;2023-09-30T02:13:41;18.97;43.99
74923;HTU21D;64715;44.760;37.678;2023-09-30T02:14:45;18.96;44.19
74923;HTU21D;64715;44.760;37.678;2023-09-30T02:15:46;18.95;44.15
74923;HTU21D;64715;44.760;37.678;2023-09-30T02:16:47;18.93;44.25
74923;HTU21D;64715;44.760;37.678;2023-09-30T02:17:48;18.93;44.29
74923;HTU21D;64715;44.760;37.678;2023-09-30T02:18:49;18.91;44.19
74923;HTU21D;64715;44.760;37.678;2023-09-30T02:19:51;18.91;44.18
74923;HTU21D;64715;44.760;37.678;2023-09-30T02:20:54;18.89;44.25
74923;HTU21D;64715;44.760;37.678;2023-09-30T02:21:54;18.89;44.42
74923;HTU21D;64715;44.760;37.678;2023-09-30T02:22:56;18.91;44.24
74923;HTU21D;64715;44.760;37.678;2023-09-30T02:23:59;18.91;44.39
74923;HTU21D;64715;44.760;37.678;2023-09-30T02:25:00;18.91;44.18
74923;HTU21D;64715;44.760;37.678;2023-09-30T02:26:02;18.89;44.35
74923;HTU21D;64715;44.760;37.678;2023-09-30T02:27:03;18.88;44.25
74923;HTU21D;64715;44.760;37.678;2023-09-30T02:28:06;18.85;44.27
74923;HTU21D;64715;44.760;37.678;2023-09-30T02:29:07;18.84;44.38
74923;HTU21D;64715;44.760;37.678;2023-09-30T02:30:12;18.81;44.35
74923;HTU21D;64715;44.760;37.678;2023-09-30T02:31:14;18.80;44.32
74923;HTU21D;64715;44.760;37.678;2023-09-30T02:32:18;18.76;44.37
74923;HTU21D;64715;44.760;37.678;2023-09-30T02:33:19;18.74;44.29
74923;HTU21D;64715;44.760;37.678;2023-09-30T02:34:20;18.70;44.43
74923;HTU21D;64715;44.760;37.678;2023-09-30T02:35:21;18.70;44.50
74923;HTU21D;64715;44.760;37.678;2023-09-30T02:36:22;18.68;44.46
74923;HTU21D;64715;44.760;37.678;2023-09-30T02:37:24;18.64;44.57
74923;HTU21D;64715;44.760;37.678;2023-09-30T02:38:26;18.64;44.51
74923;HTU21D;64715;44.760;37.678;2023-09-30T02:39:27;18.62;44.48
74923;HTU21D;64715;44.760;37.678;2023-09-30T02:40:28;18.61;44.45
74923;HTU21D;64715;44.760;37.678;2023-09-30T02:41:29;18.57;44.50
74923;HTU21D;64715;44.760;37.678;2023-09-30T02:42:31;18.54;44.42
74923;HTU21D;64715;44.760;37.678;2023-09-30T02:43:32;18.53;44.44
74923;HTU21D;64715;44.760;37.678;2023-09-30T02:44:33;18.51;44.49
74923;HTU21D;64715;44.760;37.678;2023-09-30T02:45:34;18.49;44.56
74923;HTU21D;64715;44.760;37.678;2023-09-30T02:46:35;18.46;44.60
74923;HTU21D;64715;44.760;37.678;2023-09-30T02:47:37;18.44;44.63
74923;HTU21D;64715;44.760;37.678;2023-09-30T02:48:38;18.40;44.52
74923;HTU21D;64715;44.760;37.678;2023-09-30T02:49:39;18.40;44.63
74923;HTU21D;64715;44.760;37.678;2023-09-30T02:50:43;18.37;44.74
74923;HTU21D;64715;44.760;37.678;2023-09-30T02:51:47;18.36;44.67
74923;HTU21D;64715;44.760;37.678;2023-09-30T02:52:48;18.35;44.67
74923;HTU21D;64715;44.760;37.678;2023-09-30T02:53:50;18.32;44.74
74923;HTU21D;64715;44.760;37.678;2023-09-30T02:54:51;18.32;44.67
74923;HTU21D;64715;44.760;37.678;2023-09-30T02:55:52;18.30;44.77
74923;HTU21D;64715;44.760;37.678;2023-09-30T02:56:57;18.30;44.72
74923;HTU21D;64715;44.760;37.678;2023-09-30T02:57:58;18.29;44.79
74923;HTU21D;64715;44.760;37.678;2023-09-30T02:59:04;18.27;44.82
74923;HTU21D;64715;44.760;37.678;2023-09-30T03:00:08;18.27;44.77
74923;HTU21D;64715;44.760;37.678;2023-09-30T03:01:25;18.27;44.97
74923;HTU21D;64715;44.760;37.678;2023-09-30T03:02:27;18.25;44.92
74923;HTU21D;64715;44.760;37.678;2023-09-30T03:03:28;18.25;44.93
74923;HTU21D;64715;44.760;37.678;2023-09-30T03:04:32;18.24;44.90
74923;HTU21D;64715;44.760;37.678;2023-09-30T03:05:33;18.23;44.83
74923;HTU21D;64715;44.760;37.678;2023-09-30T03:06:34;18.21;44.88
74923;HTU21D;64715;44.760;37.678;2023-09-30T03:07:39;18.20;45.09
74923;HTU21D;64715;44.760;37.678;2023-09-30T03:08:42;18.18;44.93
74923;HTU21D;64715;44.760;37.678;2023-09-30T03:09:43;18.17;44.97
74923;HTU21D;64715;44.760;37.678;2023-09-30T03:10:44;18.17;44.96
74923;HTU21D;64715;44.760;37.678;2023-09-30T03:11:45;18.15;44.94
74923;HTU21D;64715;44.760;37.678;2023-09-30T03:12:48;18.12;45.14
74923;HTU21D;64715;44.760;37.678;2023-09-30T03:13:49;18.12;45.09
74923;HTU21D;64715;44.760;37.678;2023-09-30T03:14:51;18.11;44.92
74923;HTU21D;64715;44.760;37.678;2023-09-30T03:15:52;18.09;45.12
74923;HTU21D;64715;44.760;37.678;2023-09-30T03:16:53;18.08;45.09
74923;HTU21D;64715;44.760;37.678;2023-09-30T03:17:54;18.07;45.06
74923;HTU21D;64715;44.760;37.678;2023-09-30T03:18:56;18.07;45.03
74923;HTU21D;64715;44.760;37.678;2023-09-30T03:19:57;18.05;45.13
74923;HTU21D;64715;44.760;37.678;2023-09-30T03:21:00;18.04;45.28
74923;HTU21D;64715;44.760;37.678;2023-09-30T03:22:02;18.02;45.07
74923;HTU21D;64715;44.760;37.678;2023-09-30T03:23:05;18.00;45.28
74923;HTU21D;64715;44.760;37.678;2023-09-30T03:24:06;17.99;45.14
74923;HTU21D;64715;44.760;37.678;2023-09-30T03:25:11;17.98;45.28
74923;HTU21D;64715;44.760;37.678;2023-09-30T03:26:12;17.95;45.25
74923;HTU21D;64715;44.760;37.678;2023-09-30T03:27:14;17.95;45.32
74923;HTU21D;64715;44.760;37.678;2023-09-30T03:28:16;17.93;45.33
74923;HTU21D;64715;44.760;37.678;2023-09-30T03:29:17;17.91;45.40
74923;HTU21D;64715;44.760;37.678;2023-09-30T03:30:18;17.92;45.25
74923;HTU21D;64715;44.760;37.678;2023-09-30T03:31:22;17.89;45.28
74923;HTU21D;64715;44.760;37.678;2023-09-30T03:32:23;17.88;45.32
74923;HTU21D;64715;44.760;37.678;2023-09-30T03:33:25;17.88;45.41
74923;HTU21D;64715;44.760;37.678;2023-09-30T03:34:27;17.88;45.37
74923;HTU21D;64715;44.760;37.678;2023-09-30T03:35:29;17.87;45.45
74923;HTU21D;64715;44.760;37.678;2023-09-30T03:36:31;17.88;45.50
74923;HTU21D;64715;44.760;37.678;2023-09-30T03:37:32;17.89;45.48
74923;HTU21D;64715;44.760;37.678;2023-09-30T03:38:33;17.90;45.50
74923;HTU21D;64715;44.760;37.678;2023-09-30T03:39:34;17.90;45.42
74923;HTU21D;64715;44.760;37.678;2023-09-30T03:40:35;17.92;45.48
74923;HTU21D;64715;44.760;37.678;2023-09-30T03:41:39;17.93;45.65
74923;HTU21D;64715;44.760;37.678;2023-09-30T03:42:41;17.92;45.41
74923;HTU21D;64715;44.760;37.678;2023-09-30T03:43:45;17.94;45.47
74923;HTU21D;64715;44.760;37.678;2023-09-30T03:44:46;17.93;45.48
74923;HTU21D;64715;44.760;37.678;2023-09-30T03:45:50;17.93;45.47
74923;HTU21D;64715;44.760;37.678;2023-09-30T03:46:51;17.94;45.35
74923;HTU21D;64715;44.760;37.678;2023-09-30T03:47:52;17.96;45.57
74923;HTU21D;64715;44.760;37.678;2023-09-30T03:48:53;17.95;45.57
74923;HTU21D;64715;44.760;37.678;2023-09-30T03:49:56;17.97;45.51
74923;HTU21D;64715;44.760;37.678;2023-09-30T03:51:08;18.02;45.52
74923;HTU21D;64715;44.760;37.678;2023-09-30T03:52:10;18.02;45.63
74923;HTU21D;64715;44.760;37.678;2023-09-30T03:53:11;18.03;45.54
74923;HTU21D;64715;44.760;37.678;2023-09-30T03:54:12;18.06;45.61
74923;HTU21D;64715;44.760;37.678;2023-09-30T03:55:14;18.07;45.64
74923;HTU21D;64715;44.760;37.678;2023-09-30T03:56:16;18.08;45.48
74923;HTU21D;64715;44.760;37.678;2023-09-30T03:57:18;18.10;45.54
74923;HTU21D;64715;44.760;37.678;2023-09-30T03:58:20;18.13;45.68
74923;HTU21D;64715;44.760;37.678;2023-09-30T03:59:22;18.15;45.57
74923;HTU21D;64715;44.760;37.678;2023-09-30T04:00:24;18.20;45.61
74923;HTU21D;64715;44.760;37.678;2023-09-30T04:01:25;18.22;45.67
74923;HTU21D;64715;44.760;37.678;2023-09-30T04:02:27;18.27;45.65
74923;HTU21D;64715;44.760;37.678;2023-09-30T04:03:28;18.30;45.67
74923;HTU21D;64715;44.760;37.678;2023-09-30T04:04:30;18.36;45.65
74923;HTU21D;64715;44.760;37.678;2023-09-30T04:05:31;18.40;45.73
74923;HTU21D;64715;44.760;37.678;2023-09-30T04:06:37;18.44;45.75
74923;HTU21D;64715;44.760;37.678;2023-09-30T04:07:42;18.49;45.85
74923;HTU21D;64715;44.760;37.678;2023-09-30T04:08:43;18.53;45.75
74923;HTU21D;64715;44.760;37.678;2023-09-30T04:09:44;18.57;45.67
74923;HTU21D;64715;44.760;37.678;2023-09-30T04:10:45;18.59;45.64
74923;HTU21D;64715;44.760;37.678;2023-09-30T04:11:46;18.63;45.54
74923;HTU21D;64715;44.760;37.678;2023-09-30T04:12:47;18.67;45.77
74923;HTU21D;64715;44.760;37.678;2023-09-30T04:13:48;18.71;45.67
74923;HTU21D;64715;44.760;37.678;2023-09-30T04:14:50;18.76;45.59
74923;HTU21D;64715;44.760;37.678;2023-09-30T04:15:51;18.80;45.56
74923;HTU21D;64715;44.760;37.678;2023-09-30T04:16:52;18.84;45.67
74923;HTU21D;64715;44.760;37.678;2023-09-30T04:17:55;18.91;45.57
74923;HTU21D;64715;44.760;37.678;2023-09-30T04:18:56;18.95;45.47
74923;HTU21D;64715;44.760;37.678;2023-09-30T04:19:57;19.00;45.56
74923;HTU21D;64715;44.760;37.678;2023-09-30T04:20:58;19.07;45.65
74923;HTU21D;64715;44.760;37.678;2023-09-30T04:21:59;19.13;45.60
74923;HTU21D;64715;44.760;37.678;2023-09-30T04:23:00;19.23;45.57
74923;HTU21D;64715;44.760;37.678;2023-09-30T04:24:03;19.36;45.45
74923;HTU21D;64715;44.760;37.678;2023-09-30T04:25:06;19.47;45.42
74923;HTU21D;64715;44.760;37.678;2023-09-30T04:26:12;19.59;45.42
74923;HTU21D;64715;44.760;37.678;2023-09-30T04:27:13;19.72;45.30
74923;HTU21D;64715;44.760;37.678;2023-09-30T04:28:14;19.83;45.31
74923;HTU21D;64715;44.760;37.678;2023-09-30T04:29:15;19.95;45.22
74923;HTU21D;64715;44.760;37.678;2023-09-30T04:30:16;20.05;45.04
74923;HTU21D;64715;44.760;37.678;2023-09-30T04:31:17;20.13;45.00
74923;HTU21D;64715;44.760;37.678;2023-09-30T04:32:19;20.19;44.88
74923;HTU21D;64715;44.760;37.678;2023-09-30T04:33:20;20.28;44.87
74923;HTU21D;64715;44.760;37.678;2023-09-30T04:34:22;20.36;44.75
74923;HTU21D;64715;44.760;37.678;2023-09-30T04:35:23;20.45;44.59
74923;HTU21D;64715;44.760;37.678;2023-09-30T04:36:26;20.51;44.64
74923;HTU21D;64715;44.760;37.678;2023-09-30T04:37:28;20.62;44.65
74923;HTU21D;64715;44.760;37.678;2023-09-30T04:38:28;20.74;44.55
74923;HTU21D;64715;44.760;37.678;2023-09-30T04:39:31;20.88;44.58
74923;HTU21D;64715;44.760;37.678;2023-09-30T04:40:36;21.06;44.33
74923;HTU21D;64715;44.760;37.678;2023-09-30T04:41:38;21.22;44.38
74923;HTU21D;64715;44.760;37.678;2023-09-30T04:42:42;21.43;44.09
74923;HTU21D;64715;44.760;37.678;2023-09-30T04:43:44;21.60;44.00
74923;HTU21D;64715;44.760;37.678;2023-09-30T04:44:45;21.78;43.93
74923;HTU21D;64715;44.760;37.678;2023-09-30T04:45:47;21.96;43.95
74923;HTU21D;64715;44.760;37.678;2023-09-30T04:46:50;22.17;43.65
74923;HTU21D;64715;44.760;37.678;2023-09-30T04:47:52;22.35;43.56
74923;HTU21D;64715;44.760;37.678;2023-09-30T04:48:53;22.52;43.46
74923;HTU21D;64715;44.760;37.678;2023-09-30T04:49:54;22.67;43.13
74923;HTU21D;64715;44.760;37.678;2023-09-30T04:50:55;22.77;43.10
74923;HTU21D;64715;44.760;37.678;2023-09-30T04:51:56;22.86;42.98
74923;HTU21D;64715;44.760;37.678;2023-09-30T04:52:57;22.94;42.93
74923;HTU21D;64715;44.760;37.678;2023-09-30T04:53:58;23.00;42.76
74923;HTU21D;64715;44.760;37.678;2023-09-30T04:55:00;23.03;42.70
74923;HTU21D;64715;44.760;37.678;2023-09-30T04:56:03;23.07;42.65
74923;HTU21D;64715;44.760;37.678;2023-09-30T04:57:04;23.06;42.65
74923;HTU21D;64715;44.760;37.678;2023-09-30T04:58:05;23.05;42.65
74923;HTU21D;64715;44.760;37.678;2023-09-30T04:59:08;23.07;42.71
74923;HTU21D;64715;44.760;37.678;2023-09-30T05:00:10;23.14;42.68
74923;HTU21D;64715;44.760;37.678;2023-09-30T05:01:12;23.27;42.64
74923;HTU21D;64715;44.760;37.678;2023-09-30T05:02:12;23.42;42.34
74923;HTU21D;64715;44.760;37.678;2023-09-30T05:03:15;23.59;42.18
74923;HTU21D;64715;44.760;37.678;2023-09-30T05:04:17;23.73;42.05
74923;HTU21D;64715;44.760;37.678;2023-09-30T05:05:18;23.81;41.86
74923;HTU21D;64715;44.760;37.678;2023-09-30T05:06:19;23.89;41.91
74923;HTU21D;64715;44.760;37.678;2023-09-30T05:07:20;23.99;41.86
74923;HTU21D;64715;44.760;37.678;2023-09-30T05:08:24;24.09;41.74
74923;HTU21D;64715;44.760;37.678;2023-09-30T05:09:26;24.16;41.72
74923;HTU21D;64715;44.760;37.678;2023-09-30T05:10:27;24.28;41.58
74923;HTU21D;64715;44.760;37.678;2023-09-30T05:11:29;24.39;41.46
74923;HTU21D;64715;44.760;37.678;2023-09-30T05:12:29;24.46;41.41
74923;HTU21D;64715;44.760;37.678;2023-09-30T05:13:30;24.50;41.36
74923;HTU21D;64715;44.760;37.678;2023-09-30T05:14:31;24.57;41.22
74923;HTU21D;64715;44.760;37.678;2023-09-30T05:15:33;24.60;41.26
74923;HTU21D;64715;44.760;37.678;2023-09-30T05:16:36;24.65;41.07
74923;HTU21D;64715;44.760;37.678;2023-09-30T05:17:37;24.68;41.11
74923;HTU21D;64715;44.760;37.678;2023-09-30T05:18:38;24.71;41.07
74923;HTU21D;64715;44.760;37.678;2023-09-30T05:19:39;24.71;41.11
74923;HTU21D;64715;44.760;37.678;2023-09-30T05:20:41;24.69;41.13
74923;HTU21D;64715;44.760;37.678;2023-09-30T05:21:42;24.66;41.18
74923;HTU21D;64715;44.760;37.678;2023-09-30T05:22:43;24.65;41.20
74923;HTU21D;64715;44.760;37.678;2023-09-30T05:23:47;24.65;41.33
74923;HTU21D;64715;44.760;37.678;2023-09-30T05:24:48;24.68;41.46
74923;HTU21D;64715;44.760;37.678;2023-09-30T05:25:49;24.69;41.35
74923;HTU21D;64715;44.760;37.678;2023-09-30T05:26:50;24.69;41.36
74923;HTU21D;64715;44.760;37.678;2023-09-30T05:27:51;24.70;41.58
74923;HTU21D;64715;44.760;37.678;2023-09-30T05:28:52;24.74;41.50
74923;HTU21D;64715;44.760;37.678;2023-09-30T05:29:53;24.75;41.54
74923;HTU21D;64715;44.760;37.678;2023-09-30T05:30:55;24.76;41.52
74923;HTU21D;64715;44.760;37.678;2023-09-30T05:31:56;24.77;41.52
74923;HTU21D;64715;44.760;37.678;2023-09-30T05:32:57;24.82;41.61
74923;HTU21D;64715;44.760;37.678;2023-09-30T05:33:59;24.84;41.47
74923;HTU21D;64715;44.760;37.678;2023-09-30T05:35:00;24.82;41.62
74923;HTU21D;64715;44.760;37.678;2023-09-30T05:36:04;24.74;41.55
74923;HTU21D;64715;44.760;37.678;2023-09-30T05:37:05;24.65;41.68
74923;HTU21D;64715;44.760;37.678;2023-09-30T05:38:07;24.61;41.81
74923;HTU21D;64715;44.760;37.678;2023-09-30T05:39:08;24.59;41.90
74923;HTU21D;64715;44.760;37.678;2023-09-30T05:40:11;24.60;42.09
74923;HTU21D;64715;44.760;37.678;2023-09-30T05:41:26;24.58;41.94
74923;HTU21D;64715;44.760;37.678;2023-09-30T05:42:28;24.58;41.90
74923;HTU21D;64715;44.760;37.678;2023-09-30T05:43:29;24.56;42.17
74923;HTU21D;64715;44.760;37.678;2023-09-30T05:44:31;24.57;42.06
74923;HTU21D;64715;44.760;37.678;2023-09-30T05:45:32;24.58;42.10
74923;HTU21D;64715;44.760;37.678;2023-09-30T05:46:36;24.61;42.03
74923;HTU21D;64715;44.760;37.678;2023-09-30T05:47:37;24.60;42.03
74923;HTU21D;64715;44.760;37.678;2023-09-30T05:48:38;24.57;42.03
74923;HTU21D;64715;44.760;37.678;2023-09-30T05:49:40;24.57;42.13
74923;HTU21D;64715;44.760;37.678;2023-09-30T05:50:42;24.57;42.19
74923;HTU21D;64715;44.760;37.678;2023-09-30T05:51:44;24.57;42.23
74923;HTU21D;64715;44.760;37.678;2023-09-30T05:52:45;24.59;42.13
74923;HTU21D;64715;44.760;37.678;2023-09-30T05:53:46;24.61;42.06
74923;HTU21D;64715;44.760;37.678;2023-09-30T05:54:50;24.62;42.03
74923;HTU21D;64715;44.760;37.678;2023-09-30T05:55:51;24.65;41.88
74923;HTU21D;64715;44.760;37.678;2023-09-30T05:56:52;24.65;42.03
74923;HTU21D;64715;44.760;37.678;2023-09-30T05:57:53;24.63;41.97
74923;HTU21D;64715;44.760;37.678;2023-09-30T05:58:54;24.64;41.96
74923;HTU21D;64715;44.760;37.678;2023-09-30T05:59:55;24.65;42.03
74923;HTU21D;64715;44.760;37.678;2023-09-30T06:00:56;24.63;41.97
74923;HTU21D;64715;44.760;37.678;2023-09-30T06:01:57;24.62;41.86
74923;HTU21D;64715;44.760;37.678;2023-09-30T06:02:58;24.61;41.92
74923;HTU21D;64715;44.760;37.678;2023-09-30T06:04:00;24.62;41.84
74923;HTU21D;64715;44.760;37.678;2023-09-30T06:05:01;24.61;41.79
74923;HTU21D;64715;44.760;37.678;2023-09-30T06:06:10;24.57;41.68
74923;HTU21D;64715;44.760;37.678;2023-09-30T06:07:12;24.50;41.81
74923;HTU21D;64715;44.760;37.678;2023-09-30T06:08:13;24.47;41.87
74923;HTU21D;64715;44.760;37.678;2023-09-30T06:09:14;24.51;41.84
74923;HTU21D;64715;44.760;37.678;2023-09-30T06:10:15;24.55;41.80
74923;HTU21D;64715;44.760;37.678;2023-09-30T06:11:20;24.64;41.74
74923;HTU21D;64715;44.760;37.678;2023-09-30T06:12:31;24.70;41.72
74923;HTU21D;64715;44.760;37.678;2023-09-30T06:13:34;24.70;41.58
74923;HTU21D;64715;44.760;37.678;2023-09-30T06:14:36;24.66;41.42
74923;HTU21D;64715;44.760;37.678;2023-09-30T06:15:41;24.61;41.45
74923;HTU21D;64715;44.760;37.678;2023-09-30T06:16:42;24.60;41.51
74923;HTU21D;64715;44.760;37.678;2023-09-30T06:17:43;24.61;41.46
74923;HTU21D;64715;44.760;37.678;2023-09-30T06:18:45;24.63;41.33
74923;HTU21D;64715;44.760;37.678;2023-09-30T06:19:47;24.63;41.26